Time;durP1;ratioP1;P1;durP2;ratioP2;P2;SDS_P1;SDS_P2;PMS_P1;PMS_P2;Temp;Humidity;BMP_temperature;BMP_pressure;BME280_temperature;BME280_humidity;BME280_pressure;Samples;Min_cycle;Max_cycle;Signal;HPM_P1;HPM_P2
2022/05/24 00:00:14;;;;;;;;;;;;;;;-142.75;100.00;75873.50;5050405;28;20365;-69
2022/05/24 00:02:40;;;;;;;;;;;;;;;-142.75;100.00;75881.38;5050802;28;19917;-69
2022/05/24 00:05:06;;;;;;;;;;;;;;;-142.75;100.00;75883.34;5032622;28;19916;-68
2022/05/24 00:07:31;;;;;;;;;;;;;;;-142.75;100.00;75877.44;5051181;28;19952;-69
2022/05/24 00:09:56;;;;;;;;;;;;;;;-142.75;100.00;75879.41;5032623;28;19932;-70
2022/05/24 00:12:21;;;;;;;;;;;;;;;-142.75;100.00;75875.47;5032592;28;19924;-69
2022/05/24 00:17:30;;;;;;;;;;;;;;;-142.75;100.00;75873.50;5068971;28;20015;-69
2022/05/24 00:19:56;;;;;;;;;;;;;;;-142.75;100.00;75869.56;5069878;28;20421;-69
2022/05/24 00:22:21;;;;;;;;;;;;;;;-142.75;100.00;75865.63;5070191;28;19916;-69
2022/05/24 00:24:46;;;;;;;;;;;;;;;-142.75;100.00;75869.56;5070433;28;19969;-69
2022/05/24 00:27:11;;;;;;;;;;;;;;;-142.75;100.00;75873.50;5070114;28;20325;-69
2022/05/24 00:29:36;;;;;;;;;;;;;;;-142.75;100.00;75879.41;5070141;28;19921;-67
2022/05/24 00:32:02;;;;;;;;;;;;;;;-142.75;100.00;75889.25;5052202;28;19920;-69
2022/05/24 00:34:27;;;;;;;;;;;;;;;-142.75;100.00;75885.31;5070132;28;19978;-69
2022/05/24 00:36:52;;;;;;;;;;;;;;;-142.75;100.00;75891.22;5070104;28;20382;-69
2022/05/24 00:39:17;;;;;;;;;;;;;;;-142.75;100.00;75893.19;5070648;28;19917;-69
2022/05/24 00:41:50;;;;;;;;;;;;;;;-142.75;100.00;75903.03;5069029;28;19924;-69
2022/05/24 00:44:24;;;;;;;;;;;;;;;-142.75;100.00;75885.31;5050290;28;19929;-70
2022/05/24 00:47:00;;;;;;;;;;;;;;;-142.75;100.00;75903.03;5049665;28;19963;-69
2022/05/24 00:49:27;;;;;;;;;;;;;;;-142.75;100.00;75897.13;5062426;28;19969;-70
2022/05/24 00:51:55;;;;;;;;;;;;;;;-142.75;100.00;75908.94;5069836;28;20033;-68
2022/05/24 00:54:20;;;;;;;;;;;;;;;-142.75;100.00;75916.81;5069977;28;20016;-69
2022/05/24 00:56:52;;;;;;;;;;;;;;;-142.75;100.00;75936.50;5070025;28;19967;-70
2022/05/24 00:59:32;;;;;;;;;;;;;;;-142.75;100.00;75946.34;5069906;28;20972;-70
2022/05/24 01:01:58;;;;;;;;;;;;;;;-142.75;100.00;75944.38;5051988;28;19963;-70
2022/05/24 01:04:23;;;;;;;;;;;;;;;-142.75;100.00;75956.19;5051972;28;20017;-69
2022/05/24 01:06:49;;;;;;;;;;;;;;;-142.75;100.00;75958.16;5069700;28;20322;-69
2022/05/24 01:09:16;;;;;;;;;;;;;;;-142.75;100.00;75956.19;5052282;28;19923;-69
2022/05/24 01:11:42;;;;;;;;;;;;;;;-142.75;100.00;75942.41;5069972;28;19921;-69
2022/05/24 01:14:08;;;;;;;;;;;;;;;-142.75;100.00;75944.38;5067368;28;19917;-68
2022/05/24 01:16:34;;;;;;;;;;;;;;;-142.75;100.00;75942.41;5049752;28;19923;-69
2022/05/24 01:19:04;;;;;;;;;;;;;;;-142.75;100.00;75952.25;5049663;28;20393;-68
2022/05/24 01:21:30;;;;;;;;;;;;;;;-142.75;100.00;75948.31;5064822;28;19927;-69
2022/05/24 01:23:55;;;;;;;;;;;;;;;-142.75;100.00;75950.28;5069752;28;20307;-69
2022/05/24 01:26:28;;;;;;;;;;;;;;;-142.75;100.00;75956.19;5061193;28;19964;-69
2022/05/24 01:28:57;;;;;;;;;;;;;;;-142.75;100.00;75950.28;5049430;28;19916;-67
2022/05/24 01:31:23;;;;;;;;;;;;;;;-142.75;100.00;75950.28;5049847;28;20433;-69
2022/05/24 01:36:35;;;;;;;;;;;;;;;-142.75;100.00;75956.19;5060652;28;19923;-69
2022/05/24 01:39:08;;;;;;;;;;;;;;;-142.75;100.00;75956.19;5053492;28;19961;-68
2022/05/24 01:41:40;;;;;;;;;;;;;;;-142.75;100.00;75950.28;5053124;28;19978;-69
2022/05/24 01:44:06;;;;;;;;;;;;;;;-142.75;100.00;75948.31;5035123;28;19917;-69
2022/05/24 01:46:36;;;;;;;;;;;;;;;-142.75;100.00;75948.31;5053060;28;19947;-69
2022/05/24 01:49:04;;;;;;;;;;;;;;;-142.75;100.00;75948.31;5069911;28;19967;-69
2022/05/24 01:51:32;;;;;;;;;;;;;;;-142.75;100.00;75948.31;5073041;28;20302;-69
2022/05/24 01:54:00;;;;;;;;;;;;;;;-142.75;100.00;75952.25;5073051;28;19916;-69
2022/05/24 01:56:30;;;;;;;;;;;;;;;-142.75;100.00;75954.22;5072633;28;20373;-69
2022/05/24 01:58:57;;;;;;;;;;;;;;;-142.75;100.00;75954.22;5054795;28;19924;-69
2022/05/24 02:01:30;;;;;;;;;;;;;;;-142.75;100.00;75956.19;5054840;28;19943;-69
2022/05/24 02:03:55;;;;;;;;;;;;;;;-142.75;100.00;75952.25;5072908;28;19916;-69
2022/05/24 02:06:22;;;;;;;;;;;;;;;-142.75;100.00;75958.16;5072595;28;19923;-68
2022/05/24 02:08:48;;;;;;;;;;;;;;;-142.75;100.00;75960.13;5072996;28;19916;-69
2022/05/24 02:11:14;;;;;;;;;;;;;;;-142.75;100.00;75964.03;5054797;28;19921;-69
2022/05/24 02:13:42;;;;;;;;;;;;;;;-142.75;100.00;75962.09;5072580;28;20301;-69
2022/05/24 02:16:09;;;;;;;;;;;;;;;-142.75;100.00;75956.19;5072360;28;20013;-69
2022/05/24 02:18:38;;;;;;;;;;;;;;;-142.75;100.00;75954.22;5072127;28;19916;-68
2022/05/24 02:21:03;;;;;;;;;;;;;;;-142.75;100.00;75962.09;5072157;28;19916;-68
2022/05/24 02:23:29;;;;;;;;;;;;;;;-142.75;100.00;75964.03;5072331;28;20013;-68
2022/05/24 02:25:55;;;;;;;;;;;;;;;-142.75;100.00;75960.13;5072421;28;19917;-69
2022/05/24 02:28:23;;;;;;;;;;;;;;;-142.75;100.00;75960.13;5071689;28;19925;-68
2022/05/24 02:30:56;;;;;;;;;;;;;;;-142.75;100.00;75960.13;5072216;28;19927;-69
2022/05/24 02:33:23;;;;;;;;;;;;;;;-142.75;100.00;75950.28;5072167;28;19920;-69
2022/05/24 02:35:49;;;;;;;;;;;;;;;-142.75;100.00;75946.34;5071832;28;19931;-67
2022/05/24 02:38:14;;;;;;;;;;;;;;;-142.75;100.00;75952.25;5072540;28;19917;-69
2022/05/24 02:43:23;;;;;;;;;;;;;;;-142.75;100.00;75958.16;5072267;28;19923;-68
2022/05/24 02:45:48;;;;;;;;;;;;;;;-142.75;100.00;75956.19;5071675;28;20348;-67
2022/05/24 02:48:14;;;;;;;;;;;;;;;-142.75;100.00;75958.16;5071475;28;19923;-69
2022/05/24 02:50:39;;;;;;;;;;;;;;;-142.75;100.00;75956.19;5056252;28;19920;-69
2022/05/24 02:53:04;;;;;;;;;;;;;;;-142.75;100.00;75956.19;5034192;28;19916;-69
2022/05/24 02:55:30;;;;;;;;;;;;;;;-142.75;100.00;75962.09;5033958;28;19921;-69
2022/05/24 02:57:55;;;;;;;;;;;;;;;-142.75;100.00;75964.03;5051440;28;20295;-69
2022/05/24 03:00:22;;;;;;;;;;;;;;;-142.75;100.00;75967.97;5033820;28;19917;-69
2022/05/24 03:02:47;;;;;;;;;;;;;;;-142.75;100.00;75969.94;5051723;28;19917;-69
2022/05/24 03:05:13;;;;;;;;;;;;;;;-142.75;100.00;75973.88;5016741;28;19921;-69
2022/05/24 03:10:22;;;;;;;;;;;;;;;-142.75;100.00;75975.84;5071944;28;19973;-69
2022/05/24 03:15:31;;;;;;;;;;;;;;;-142.75;100.00;75981.75;5071288;28;19923;-69
2022/05/24 03:17:56;;;;;;;;;;;;;;;-142.75;100.00;75991.59;5071125;28;20306;-69
2022/05/24 03:20:22;;;;;;;;;;;;;;;-142.75;100.00;75987.66;5071289;28;19931;-69
2022/05/24 03:22:47;;;;;;;;;;;;;;;-142.75;100.00;75999.47;5071288;28;20401;-69
2022/05/24 03:25:13;;;;;;;;;;;;;;;-142.75;100.00;76007.34;5071174;28;19916;-69
2022/05/24 03:27:38;;;;;;;;;;;;;;;-142.75;100.00;76019.16;5040677;28;19975;-69
2022/05/24 03:30:03;;;;;;;;;;;;;;;-142.75;100.00;76027.03;5050769;28;20008;-69
2022/05/24 03:32:29;;;;;;;;;;;;;;;-142.75;100.00;76030.97;5036119;28;20575;-69
2022/05/24 03:34:54;;;;;;;;;;;;;;;-142.75;100.00;76032.94;5062351;28;20332;-69
2022/05/24 03:37:19;;;;;;;;;;;;;;;-142.75;100.00;76023.09;5059520;28;19927;-69
2022/05/24 03:39:44;;;;;;;;;;;;;;;-142.75;100.00;76034.91;5051343;28;20328;-68
2022/05/24 03:42:09;;;;;;;;;;;;;;;-142.75;100.00;76032.94;5032934;28;20387;-68
2022/05/24 03:44:35;;;;;;;;;;;;;;;-142.75;100.00;76044.75;5032911;28;20370;-68
2022/05/24 03:47:00;;;;;;;;;;;;;;;-142.75;100.00;76044.75;5056177;23;19931;-68
2022/05/24 03:49:25;;;;;;;;;;;;;;;-142.75;100.00;76052.63;5048746;28;19955;-68
2022/05/24 03:51:50;;;;;;;;;;;;;;;-142.75;100.00;76060.50;5048773;28;20518;-67
2022/05/24 03:54:16;;;;;;;;;;;;;;;-142.75;100.00;76068.38;5050919;28;19917;-67
2022/05/24 03:58:00;;;;;;;;;;;;;;;-142.75;100.00;76070.34;5047011;28;19917;-67
2022/05/24 03:59:30;;;;;;;;;;;;;;;-142.75;100.00;76070.34;5042900;28;19992;-67
2022/05/24 04:01:55;;;;;;;;;;;;;;;-142.75;100.00;76070.34;5029584;28;20000;-67
2022/05/24 04:04:20;;;;;;;;;;;;;;;-142.75;100.00;76070.34;5030677;28;19917;-68
2022/05/24 04:06:45;;;;;;;;;;;;;;;-142.75;100.00;76068.38;5030823;28;19917;-67
2022/05/24 04:09:11;;;;;;;;;;;;;;;-142.75;100.00;76076.22;5031063;28;20394;-68
2022/05/24 04:11:37;;;;;;;;;;;;;;;-142.75;100.00;76066.41;5030500;28;20371;-67
2022/05/24 04:14:03;;;;;;;;;;;;;;;-142.75;100.00;76068.38;5048245;28;20096;-67
2022/05/24 04:16:28;;;;;;;;;;;;;;;-142.75;100.00;76070.34;5049253;28;19964;-67
2022/05/24 04:18:54;;;;;;;;;;;;;;;-142.75;100.00;76082.13;5049512;28;20436;-67
2022/05/24 04:21:19;;;;;;;;;;;;;;;-142.75;100.00;76080.16;5051262;28;19935;-67
2022/05/24 04:23:44;;;;;;;;;;;;;;;-142.75;100.00;76068.38;5051003;28;20394;-67
2022/05/24 04:26:09;;;;;;;;;;;;;;;-142.75;100.00;76082.13;5050979;28;20012;-68
2022/05/24 04:28:35;;;;;;;;;;;;;;;-142.75;100.00;76093.94;5050490;28;20302;-68
2022/05/24 04:31:00;;;;;;;;;;;;;;;-142.75;100.00;76109.69;5050970;28;19967;-67
2022/05/24 04:33:25;;;;;;;;;;;;;;;-142.75;100.00;76111.66;5050951;28;19971;-67
2022/05/24 04:35:51;;;;;;;;;;;;;;;-142.75;100.00;76123.47;5051021;28;19920;-68
2022/05/24 04:38:17;;;;;;;;;;;;;;;-142.75;100.00;76125.44;5049335;28;21319;-67
2022/05/24 04:43:25;;;;;;;;;;;;;;;-142.75;100.00;76129.38;5050855;28;19939;-68
2022/05/24 04:45:53;;;;;;;;;;;;;;;-142.75;100.00;76125.44;5050838;28;20374;-68
2022/05/24 04:48:18;;;;;;;;;;;;;;;-142.75;100.00;76125.44;5049131;28;19920;-68
2022/05/24 04:50:43;;;;;;;;;;;;;;;-142.75;100.00;76135.28;5050678;28;20340;-68
2022/05/24 04:53:08;;;;;;;;;;;;;;;-142.75;100.00;76131.34;5050773;28;20293;-68
2022/05/24 04:55:34;;;;;;;;;;;;;;;-142.75;100.00;76133.31;5050762;28;19924;-68
2022/05/24 04:57:59;;;;;;;;;;;;;;;-142.75;100.00;76133.31;5050322;28;19995;-68
2022/05/24 05:00:24;;;;;;;;;;;;;;;-142.75;100.00;76133.31;5050908;28;19971;-68
2022/05/24 05:02:50;;;;;;;;;;;;;;;-142.75;100.00;76149.06;5050752;28;19917;-67
2022/05/24 05:05:15;;;;;;;;;;;;;;;-142.75;100.00;76145.13;5050665;28;19943;-67
2022/05/24 05:07:41;;;;;;;;;;;;;;;-142.75;100.00;76156.94;5050439;28;19916;-68
2022/05/24 05:10:07;;;;;;;;;;;;;;;-142.75;100.00;76151.03;5052166;28;19932;-68
2022/05/24 05:12:32;;;;;;;;;;;;;;;-142.75;100.00;76153.00;5054179;28;20033;-68
2022/05/24 05:14:57;;;;;;;;;;;;;;;-142.75;100.00;76172.69;5054468;28;19999;-68
2022/05/24 05:17:22;;;;;;;;;;;;;;;-142.75;100.00;76174.66;5054444;28;20402;-67
2022/05/24 05:19:48;;;;;;;;;;;;;;;-142.75;100.00;76174.66;5053818;28;20400;-67
2022/05/24 05:22:14;;;;;;;;;;;;;;;-142.75;100.00;76176.63;5053008;28;19924;-67
2022/05/24 05:24:39;;;;;;;;;;;;;;;-142.75;100.00;76178.59;5054177;28;19998;-68
2022/05/24 05:27:05;;;;;;;;;;;;;;;-142.75;100.00;76174.66;5054134;28;19964;-67
2022/05/24 05:32:18;;;;;;;;;;;;;;;-142.75;100.00;76192.38;5054030;28;19927;-67
2022/05/24 05:34:43;;;;;;;;;;;;;;;-142.75;100.00;76194.34;5053860;28;19979;-67
2022/05/24 05:37:08;;;;;;;;;;;;;;;-142.75;100.00;76192.38;5052657;28;20022;-67
2022/05/24 05:39:34;;;;;;;;;;;;;;;-142.75;100.00;76180.56;5052375;28;19924;-67
2022/05/24 05:42:01;;;;;;;;;;;;;;;-142.75;100.00;76182.53;5053845;28;20389;-67
2022/05/24 05:44:27;;;;;;;;;;;;;;;-142.75;100.00;76180.56;5053795;28;20356;-67
2022/05/24 05:46:53;;;;;;;;;;;;;;;-142.75;100.00;76180.56;5053673;28;19924;-67
2022/05/24 05:49:18;;;;;;;;;;;;;;;-142.75;100.00;76160.88;5053291;28;19916;-67
2022/05/24 05:51:43;;;;;;;;;;;;;;;-142.75;100.00;76147.09;5053866;28;20024;-67
2022/05/24 05:54:09;;;;;;;;;;;;;;;-142.75;100.00;76133.31;5053739;28;19917;-67
2022/05/24 05:56:34;;;;;;;;;;;;;;;-142.75;100.00;76143.16;5046533;28;19916;-67
2022/05/24 05:58:59;;;;;;;;;;;;;;;-142.75;100.00;76133.31;5043309;28;20424;-67
2022/05/24 06:01:29;;;;;;;;;;;;;;;-142.75;100.00;76133.31;5042528;28;20015;-67
2022/05/24 06:03:56;;;;;;;;;;;;;;;-142.75;100.00;76123.47;5033970;28;19986;-67
2022/05/24 06:06:23;;;;;;;;;;;;;;;-142.75;100.00;76125.44;5033499;28;20002;-67
2022/05/24 06:08:48;;;;;;;;;;;;;;;-142.75;100.00;76117.56;5033291;28;20401;-67
2022/05/24 06:11:13;;;;;;;;;;;;;;;-142.75;100.00;76099.84;5033302;28;19921;-67
2022/05/24 06:13:38;;;;;;;;;;;;;;;-142.75;100.00;76101.81;5033512;28;20426;-67
2022/05/24 06:16:04;;;;;;;;;;;;;;;-142.75;100.00;76097.88;5033628;28;20263;-67
2022/05/24 06:18:29;;;;;;;;;;;;;;;-142.75;100.00;76093.94;5033077;28;19917;-67
2022/05/24 06:20:54;;;;;;;;;;;;;;;-142.75;100.00;76093.94;5033175;28;19931;-67
2022/05/24 06:23:19;;;;;;;;;;;;;;;-142.75;100.00;76101.81;5033437;28;19917;-69
2022/05/24 06:25:44;;;;;;;;;;;;;;;-142.75;100.00;76090.00;5033225;28;19924;-68
2022/05/24 06:28:14;;;;;;;;;;;;;;;-142.75;100.00;76103.78;5033059;28;19921;-68
2022/05/24 06:30:39;;;;;;;;;;;;;;;-142.75;100.00;76097.88;5033055;28;19996;-69
2022/05/24 06:33:04;;;;;;;;;;;;;;;-142.75;100.00;76093.94;5051051;28;20011;-67
2022/05/24 06:35:29;;;;;;;;;;;;;;;-142.75;100.00;76091.97;5053571;28;20023;-68
2022/05/24 06:37:54;;;;;;;;;;;;;;;-142.75;100.00;76078.19;5052620;28;19924;-67
2022/05/24 06:40:20;;;;;;;;;;;;;;;-142.75;100.00;76058.53;5053042;28;19970;-67
2022/05/24 06:42:45;;;;;;;;;;;;;;;-142.75;100.00;76050.66;5052905;28;19953;-67
2022/05/24 06:45:11;;;;;;;;;;;;;;;-142.75;100.00;76034.91;5046944;28;19971;-67
2022/05/24 06:47:37;;;;;;;;;;;;;;;-142.75;100.00;76023.09;5031418;28;19971;-69
2022/05/24 06:50:03;;;;;;;;;;;;;;;-142.75;100.00;75979.78;5032652;28;19917;-68
2022/05/24 06:52:28;;;;;;;;;;;;;;;-142.75;100.00;75950.28;5032771;28;19935;-68
2022/05/24 06:54:54;;;;;;;;;;;;;;;-142.75;100.00;75964.03;5032845;28;19917;-68
2022/05/24 06:57:19;;;;;;;;;;;;;;;-142.75;100.00;75979.78;5031465;28;19917;-68
2022/05/24 07:02:29;;;;;;;;;;;;;;;-142.75;100.00;75944.38;5051083;28;20336;-69
2022/05/24 07:05:14;;;;;;;;;;;;;;;-142.75;100.00;75948.31;5051690;28;19916;-68
2022/05/24 07:07:40;;;;;;;;;;;;;;;-142.75;100.00;75971.91;5051064;28;19923;-68
2022/05/24 07:10:07;;;;;;;;;;;;;;;-142.75;100.00;75991.59;5051051;28;19916;-68
2022/05/24 07:12:32;;;;;;;;;;;;;;;-142.75;100.00;75999.47;5051336;28;20043;-68
2022/05/24 07:14:58;;;;;;;;;;;;;;;-142.75;100.00;76025.06;5051332;28;19959;-67
2022/05/24 07:17:23;;;;;;;;;;;;;;;-142.75;100.00;76023.09;5051325;28;19917;-67
2022/05/24 07:19:49;;;;;;;;;;;;;;;-142.75;100.00;76023.09;5050775;28;20374;-67
2022/05/24 07:22:14;;;;;;;;;;;;;;;-142.75;100.00;76023.09;5051048;28;19962;-67
2022/05/24 07:24:40;;;;;;;;;;;;;;;-142.75;100.00;76044.75;5051019;28;19963;-67
2022/05/24 07:27:09;;;;;;;;;;;;;;;-142.75;100.00;76050.66;5050764;28;19973;-68
2022/05/24 07:29:35;;;;;;;;;;;;;;;-142.75;100.00;76060.50;5050542;28;19917;-67
2022/05/24 07:32:00;;;;;;;;;;;;;;;-142.75;100.00;76070.34;5048996;28;19928;-68
2022/05/24 07:34:25;;;;;;;;;;;;;;;-142.75;100.00;76072.31;5050783;28;20425;-68
2022/05/24 07:36:50;;;;;;;;;;;;;;;-142.75;100.00;76090.00;5050805;28;19970;-68
2022/05/24 07:39:16;;;;;;;;;;;;;;;-142.75;100.00;76107.72;5050639;28;19925;-68
2022/05/24 07:47:09;;;;;;;;;;;;;;;-142.75;100.00;76147.09;5035027;28;19936;-66
2022/05/24 07:49:35;;;;;;;;;;;;;;;-142.75;100.00;76149.06;5030341;28;20282;-66
2022/05/24 07:52:00;;;;;;;;;;;;;;;-142.75;100.00;76170.72;5029253;28;19921;-66
2022/05/24 07:54:27;;;;;;;;;;;;;;;-142.75;100.00;76180.56;5030252;28;19917;-66
2022/05/24 07:56:52;;;;;;;;;;;;;;;-142.75;100.00;76198.28;5030055;28;19924;-66
2022/05/24 07:59:17;;;;;;;;;;;;;;;-142.75;100.00;76208.09;5031036;28;19921;-67
2022/05/24 08:01:43;;;;;;;;;;;;;;;-142.75;100.00;76212.03;5031206;28;19939;-66
2022/05/24 08:04:09;;;;;;;;;;;;;;;-142.75;100.00;76219.91;5030963;28;19924;-67
2022/05/24 08:06:34;;;;;;;;;;;;;;;-142.75;100.00;76196.31;5031170;28;19999;-67
2022/05/24 08:09:00;;;;;;;;;;;;;;;-142.75;100.00;76172.69;5030856;28;20386;-68
2022/05/24 08:11:25;;;;;;;;;;;;;;;-142.75;100.00;76153.00;5030047;28;19928;-68
2022/05/24 08:13:50;;;;;;;;;;;;;;;-142.75;100.00;76121.50;5031347;28;20310;-68
2022/05/24 08:16:15;;;;;;;;;;;;;;;-142.75;100.00;76040.81;5030459;28;20014;-67
2022/05/24 08:18:41;;;;;;;;;;;;;;;-142.75;100.00;75983.72;5030861;28;20294;-67
2022/05/24 08:21:06;;;;;;;;;;;;;;;-142.75;100.00;75936.50;5031112;28;19917;-68
2022/05/24 08:23:32;;;;;;;;;;;;;;;-142.75;100.00;75936.50;5031037;28;19968;-68
2022/05/24 08:25:58;;;;;;;;;;;;;;;-142.75;100.00;75950.28;5031139;28;19976;-68
2022/05/24 08:28:23;;;;;;;;;;;;;;;-142.75;100.00;75979.78;5030815;28;19917;-67
2022/05/24 08:30:50;;;;;;;;;;;;;;;-142.75;100.00;76003.41;5029833;28;19987;-68
2022/05/24 08:33:15;;;;;;;;;;;;;;;-142.75;100.00;76042.78;5031162;28;19916;-68
2022/05/24 08:35:42;;;;;;;;;;;;;;;-142.75;100.00;76105.75;5031095;28;19971;-68
2022/05/24 08:38:08;;;;;;;;;;;;;;;-142.75;100.00;76139.22;5030598;28;19921;-68
2022/05/24 08:40:35;;;;;;;;;;;;;;;-142.75;100.00;76172.69;5031019;28;20385;-68
2022/05/24 08:43:12;;;;;;;;;;;;;;;-142.75;100.00;76172.69;5031069;28;20302;-68
2022/05/24 08:48:38;;;;;;;;;;;;;;;-142.75;100.00;76125.44;5054556;28;20355;-68
2022/05/24 08:51:10;;;;;;;;;;;;;;;-142.75;100.00;76074.25;5055113;28;19921;-68
2022/05/24 08:53:39;;;;;;;;;;;;;;;-142.75;100.00;76019.16;5044177;28;19924;-68
2022/05/24 08:56:06;;;;;;;;;;;;;;;-142.75;100.00;75967.97;5034978;28;20009;-68
2022/05/24 08:58:36;;;;;;;;;;;;;;;-142.75;100.00;75922.72;5034425;28;19924;-68
2022/05/24 09:01:04;;;;;;;;;;;;;;;-142.75;100.00;75881.38;5033342;28;19921;-68
2022/05/24 09:03:29;;;;;;;;;;;;;;;-142.75;100.00;75899.09;5034793;28;19932;-68
2022/05/24 09:05:59;;;;;;;;;;;;;;;-142.75;100.00;75926.66;5034669;28;20618;-68
2022/05/24 09:08:37;;;;;;;;;;;;;;;-142.75;100.00;75940.44;5034389;28;19925;-68
2022/05/24 09:11:02;;;;;;;;;;;;;;;-142.75;100.00;75977.81;5052261;28;20378;-68
2022/05/24 09:13:30;;;;;;;;;;;;;;;-142.75;100.00;76011.28;5054400;28;19966;-68
2022/05/24 09:16:01;;;;;;;;;;;;;;;-142.75;100.00;76050.66;5054406;28;19916;-68
2022/05/24 09:18:40;;;;;;;;;;;;;;;-142.75;100.00;76062.47;5054000;28;19917;-68
2022/05/24 09:21:05;;;;;;;;;;;;;;;-142.75;100.00;76105.75;5054377;28;19917;-68
2022/05/24 09:23:30;;;;;;;;;;;;;;;-142.75;100.00;76178.59;5054183;28;20282;-68
2022/05/24 09:25:58;;;;;;;;;;;;;;;-142.75;100.00;76237.63;5054100;28;20271;-68
2022/05/24 09:28:42;;;;;;;;;;;;;;;-142.75;100.00;76322.28;5053739;28;20418;-67
2022/05/24 09:31:08;;;;;;;;;;;;;;;-142.75;100.00;76357.69;5052773;28;20302;-67
2022/05/24 09:33:38;;;;;;;;;;;;;;;-142.75;100.00;76365.56;5052914;28;20452;-67
2022/05/24 09:36:04;;;;;;;;;;;;;;;-142.75;100.00;76377.38;5054070;28;20400;-67
2022/05/24 09:38:38;;;;;;;;;;;;;;;-142.75;100.00;76365.56;5053700;28;20076;-67
2022/05/24 09:41:13;;;;;;;;;;;;;;;-142.75;100.00;76349.81;5053975;28;19943;-67
2022/05/24 09:43:40;;;;;;;;;;;;;;;-142.75;100.00;76343.94;5054078;28;19916;-67
2022/05/24 09:46:22;;;;;;;;;;;;;;;-142.75;100.00;76320.31;5054604;28;19916;-67
2022/05/24 09:48:53;;;;;;;;;;;;;;;-142.75;100.00;76318.34;5055804;23;19949;-68
2022/05/24 09:51:23;;;;;;;;;;;;;;;-142.75;100.00;76318.34;5043154;28;20011;-69
2022/05/24 09:53:53;;;;;;;;;;;;;;;-142.75;100.00;76316.38;5053726;28;20369;-69
2022/05/24 09:56:23;;;;;;;;;;;;;;;-142.75;100.00;76300.63;5034930;28;19979;-69
2022/05/24 09:58:57;;;;;;;;;;;;;;;-142.75;100.00;76290.78;5035975;28;20313;-69
2022/05/24 10:01:36;;;;;;;;;;;;;;;-142.75;100.00;76286.84;5016020;28;19971;-69
2022/05/24 10:04:20;;;;;;;;;;;;;;;-142.75;100.00;76298.66;5033559;28;20004;-69
2022/05/24 10:06:57;;;;;;;;;;;;;;;-142.75;100.00;76306.53;5033547;28;19960;-68
2022/05/24 10:09:38;;;;;;;;;;;;;;;-142.75;100.00;76310.47;5015418;28;19935;-67
2022/05/24 10:12:06;;;;;;;;;;;;;;;-142.75;100.00;76296.69;5033237;28;19932;-69
2022/05/24 10:14:41;;;;;;;;;;;;;;;-142.75;100.00;76310.47;5033615;28;19943;-69
2022/05/24 10:17:20;;;;;;;;;;;;;;;-142.75;100.00;76275.03;5033300;28;19924;-69
2022/05/24 10:20:03;;;;;;;;;;;;;;;-142.75;100.00;76267.16;5032935;28;19928;-69
2022/05/24 10:22:28;;;;;;;;;;;;;;;-142.75;100.00;76255.34;5032980;28;19921;-69
2022/05/24 10:24:57;;;;;;;;;;;;;;;-142.75;100.00;76267.16;5015476;28;20016;-69
2022/05/24 10:27:42;;;;;;;;;;;;;;;-142.75;100.00;76271.09;5033019;28;19928;-69
2022/05/24 10:30:07;;;;;;;;;;;;;;;-142.75;100.00;76290.78;5033037;28;19917;-69
2022/05/24 10:38:44;;;;;;;;;;;;;;;-142.75;100.00;76072.31;5032899;28;19923;-70
2022/05/24 10:41:14;;;;;;;;;;;;;;;-142.75;100.00;76060.50;5032843;28;20310;-69
2022/05/24 10:43:58;;;;;;;;;;;;;;;-142.75;100.00;76091.97;5015018;28;20379;-69
2022/05/24 10:46:43;;;;;;;;;;;;;;;-142.75;100.00;76113.63;5031566;28;19923;-69
2022/05/24 10:49:27;;;;;;;;;;;;;;;-142.75;100.00;76137.25;5032366;28;19925;-69
2022/05/24 10:51:56;;;;;;;;;;;;;;;-142.75;100.00;76080.16;5032497;28;19921;-69
2022/05/24 10:54:43;;;;;;;;;;;;;;;-142.75;100.00;76007.34;5032471;28;20661;-69
2022/05/24 10:57:12;;;;;;;;;;;;;;;-142.75;100.00;75928.63;5032575;28;19917;-69
2022/05/24 10:59:44;;;;;;;;;;;;;;;-142.75;100.00;75849.91;5032324;28;19917;-69
2022/05/24 11:02:15;;;;;;;;;;;;;;;-142.75;100.00;75877.44;5032475;28;19920;-68
2022/05/24 11:04:52;;;;;;;;;;;;;;;-142.75;100.00;75946.34;5032600;28;20349;-69
2022/05/24 11:07:19;;;;;;;;;;;;;;;-142.75;100.00;76017.19;5032224;28;19921;-69
2022/05/24 11:09:56;;;;;;;;;;;;;;;-142.75;100.00;76078.19;5032157;28;19917;-69
2022/05/24 11:12:24;;;;;;;;;;;;;;;-142.75;100.00;76095.91;5014387;28;20341;-69
2022/05/24 11:15:03;;;;;;;;;;;;;;;-142.75;100.00;76042.78;5032207;28;20022;-69
2022/05/24 11:17:28;;;;;;;;;;;;;;;-142.75;100.00;76001.44;5032335;28;19940;-68
2022/05/24 11:19:55;;;;;;;;;;;;;;;-142.75;100.00;75936.50;5031769;28;19917;-69
2022/05/24 11:22:28;;;;;;;;;;;;;;;-142.75;100.00;75946.34;5014402;28;19917;-69
2022/05/24 11:25:13;;;;;;;;;;;;;;;-142.75;100.00;75960.13;5032030;28;20132;-70
2022/05/24 11:27:50;;;;;;;;;;;;;;;-142.75;100.00;75987.66;5003792;28;20306;-69
2022/05/24 11:30:24;;;;;;;;;;;;;;;-142.75;100.00;75940.44;5031898;28;20207;-69
2022/05/24 11:32:54;;;;;;;;;;;;;;;-142.75;100.00;75838.09;5031694;28;20279;-69
2022/05/24 11:35:19;;;;;;;;;;;;;;;-142.75;100.00;75853.84;5031546;28;20413;-68
2022/05/24 11:37:47;;;;;;;;;;;;;;;-142.75;100.00;75877.44;5031583;28;19921;-69
2022/05/24 11:40:32;;;;;;;;;;;;;;;-142.75;100.00;75916.81;5031589;28;19917;-68
2022/05/24 11:43:05;;;;;;;;;;;;;;;-142.75;100.00;75987.66;5024329;28;20374;-69
2022/05/24 11:45:34;;;;;;;;;;;;;;;-142.75;100.00;76009.31;5016000;28;20286;-69
2022/05/24 11:48:01;;;;;;;;;;;;;;;-142.75;100.00;75956.19;5029164;28;20390;-69
2022/05/24 11:50:45;;;;;;;;;;;;;;;-142.75;100.00;75879.41;5031322;28;19927;-69
2022/05/24 11:53:30;;;;;;;;;;;;;;;-142.75;100.00;75790.84;5013690;28;19921;-69
2022/05/24 11:55:55;;;;;;;;;;;;;;;-142.75;100.00;75751.50;5031206;28;19944;-69
2022/05/24 11:58:21;;;;;;;;;;;;;;;-142.75;100.00;75747.56;5030810;28;20434;-69
2022/05/24 12:00:58;;;;;;;;;;;;;;;-142.75;100.00;75743.63;5031237;28;19916;-69
2022/05/24 12:09:12;;;;;;;;;;;;;;;-142.75;100.00;75777.06;5031174;28;19924;-69
2022/05/24 12:11:37;;;;;;;;;;;;;;;-142.75;100.00;75792.81;5013389;28;19973;-69
2022/05/24 12:14:14;;;;;;;;;;;;;;;-142.75;100.00;75818.41;5031119;28;20429;-69
2022/05/24 12:16:54;;;;;;;;;;;;;;;-142.75;100.00;75869.56;5031027;28;20371;-68
2022/05/24 12:19:37;;;;;;;;;;;;;;;-142.75;100.00;75834.16;5030444;28;19924;-70
2022/05/24 12:22:06;;;;;;;;;;;;;;;-142.75;100.00;75782.97;5031119;28;19917;-69
2022/05/24 12:24:31;;;;;;;;;;;;;;;-142.75;100.00;75718.03;5013362;28;20549;-69
2022/05/24 12:27:17;;;;;;;;;;;;;;;-142.75;100.00;75731.81;5013246;28;19917;-69
2022/05/24 12:29:45;;;;;;;;;;;;;;;-142.75;100.00;75769.19;5030636;28;19924;-68
2022/05/24 12:32:10;;;;;;;;;;;;;;;-142.75;100.00;75784.94;5013103;28;19932;-67
2022/05/24 12:34:35;;;;;;;;;;;;;;;-142.75;100.00;75765.25;5012912;28;20302;-69
2022/05/24 12:37:08;;;;;;;;;;;;;;;-142.75;100.00;75771.16;5030822;28;19921;-69
2022/05/24 12:39:35;;;;;;;;;;;;;;;-142.75;100.00;75814.47;5024013;28;19921;-68
2022/05/24 12:42:02;;;;;;;;;;;;;;;-142.75;100.00;75844.00;5030485;28;19917;-69
2022/05/24 12:44:33;;;;;;;;;;;;;;;-142.75;100.00;75824.31;5021364;28;19972;-69
2022/05/24 12:47:04;;;;;;;;;;;;;;;-142.75;100.00;75844.00;4996711;28;19925;-69
2022/05/24 12:49:31;;;;;;;;;;;;;;;-142.75;100.00;75861.69;5029586;28;19925;-70
2022/05/24 12:52:02;;;;;;;;;;;;;;;-142.75;100.00;75830.22;5018850;28;20063;-70
2022/05/24 12:54:30;;;;;;;;;;;;;;;-142.75;100.00;75881.38;5010788;28;19917;-69
2022/05/24 12:56:57;;;;;;;;;;;;;;;-142.75;100.00;75796.75;4993323;28;19918;-69
2022/05/24 12:59:28;;;;;;;;;;;;;;;-142.75;100.00;75739.69;5010943;28;20338;-69
2022/05/24 13:01:54;;;;;;;;;;;;;;;-142.75;100.00;75720.00;5011062;28;19964;-68
2022/05/24 13:04:21;;;;;;;;;;;;;;;-142.75;100.00;75716.06;5010865;28;19969;-69